createdAt,value
2017-10-15T00:00:54.923Z,6.83
2017-10-15T00:03:22.470Z,5.60
2017-10-15T00:05:50.013Z,7.30
2017-10-15T00:08:18.303Z,7.47
2017-10-15T00:10:45.827Z,6.40
2017-10-15T00:13:13.320Z,5.83
2017-10-15T00:15:41.090Z,5.87
2017-10-15T00:18:08.647Z,6.50
2017-10-15T00:20:36.214Z,10.37
2017-10-15T00:23:03.712Z,9.07
2017-10-15T00:25:31.201Z,9.43
2017-10-15T00:27:59.492Z,8.63
2017-10-15T00:30:27.755Z,7.23
2017-10-15T00:32:56.016Z,8.07
2017-10-15T00:35:23.538Z,8.37
2017-10-15T00:37:51.031Z,7.93
2017-10-15T00:40:18.538Z,6.43
2017-10-15T00:42:46.052Z,8.03
2017-10-15T00:45:13.544Z,6.87
2017-10-15T00:47:41.824Z,8.03
2017-10-15T00:50:09.348Z,6.00
2017-10-15T00:52:36.851Z,8.10
2017-10-15T00:55:04.374Z,7.40
2017-10-15T00:57:31.874Z,9.20
2017-10-15T00:59:59.383Z,9.53
2017-10-15T01:02:26.899Z,6.70
2017-10-15T01:04:54.436Z,9.10
2017-10-15T01:07:21.939Z,5.77
2017-10-15T01:09:50.318Z,6.03
2017-10-15T01:12:17.807Z,6.23
2017-10-15T01:14:45.334Z,6.60
2017-10-15T01:17:12.852Z,8.00
2017-10-15T01:19:40.370Z,9.43
2017-10-15T01:22:07.893Z,10.30
2017-10-15T01:24:36.513Z,9.43
2017-10-15T01:27:04.006Z,8.67
2017-10-15T01:29:32.286Z,7.47
2017-10-15T01:32:00.555Z,11.63
2017-10-15T01:34:28.816Z,8.87
2017-10-15T01:36:56.331Z,7.53
2017-10-15T01:39:23.828Z,11.07
2017-10-15T01:41:51.349Z,6.87
2017-10-15T01:44:18.863Z,7.83
2017-10-15T01:46:46.449Z,8.63
2017-10-15T01:49:13.980Z,8.43
2017-10-15T01:51:41.522Z,10.97
2017-10-15T01:54:09.003Z,7.07
2017-10-15T01:56:36.520Z,8.30
2017-10-15T01:59:04.035Z,19.27
2017-10-15T02:01:32.316Z,7.43
2017-10-15T02:04:00.595Z,6.17
2017-10-15T02:06:28.850Z,7.00
2017-10-15T02:08:56.343Z,7.60
2017-10-15T02:11:24.651Z,9.13
2017-10-15T02:13:52.135Z,9.23
2017-10-15T02:16:19.655Z,8.73
2017-10-15T02:18:47.163Z,11.63
2017-10-15T02:21:14.670Z,9.43
2017-10-15T02:23:44.759Z,7.33
2017-10-15T02:26:13.039Z,14.77
2017-10-15T02:28:40.536Z,7.63
2017-10-15T02:31:08.046Z,7.90
2017-10-15T02:33:36.298Z,7.90
2017-10-15T02:36:03.787Z,6.47
2017-10-15T02:38:31.315Z,8.70
2017-10-15T02:40:58.816Z,11.50
2017-10-15T02:43:27.086Z,7.23
2017-10-15T02:45:55.355Z,9.90
2017-10-15T02:48:23.605Z,13.07
2017-10-15T02:50:51.087Z,8.23
2017-10-15T02:53:19.366Z,9.43
2017-10-15T02:55:47.622Z,9.43
2017-10-15T02:58:15.110Z,7.73
2017-10-15T03:00:43.411Z,17.80
2017-10-15T03:03:10.906Z,12.40
2017-10-15T03:05:38.397Z,12.23
2017-10-15T03:08:05.918Z,13.33
2017-10-15T03:10:33.418Z,14.63
2017-10-15T03:13:01.683Z,13.00
2017-10-15T03:15:29.195Z,9.30
2017-10-15T03:17:56.719Z,9.60
2017-10-15T03:20:24.217Z,10.07
2017-10-15T03:22:51.730Z,10.93
2017-10-15T03:25:19.995Z,8.53
2017-10-15T03:27:47.491Z,7.37
2017-10-15T03:30:14.999Z,9.90
2017-10-15T03:32:42.506Z,9.60
2017-10-15T03:35:10.007Z,7.10
2017-10-15T03:37:37.514Z,8.60
2017-10-15T03:40:05.764Z,9.13
2017-10-15T03:42:33.275Z,7.80
2017-10-15T03:45:00.778Z,9.37
2017-10-15T03:47:28.267Z,6.87
2017-10-15T03:49:55.770Z,8.30
2017-10-15T03:52:23.287Z,7.60
2017-10-15T03:54:51.543Z,6.90
2017-10-15T03:57:19.811Z,7.40
2017-10-15T03:59:47.330Z,8.63
2017-10-15T04:02:14.817Z,6.67
2017-10-15T04:04:42.342Z,7.03
2017-10-15T04:07:09.835Z,7.30
2017-10-15T04:09:37.323Z,7.60
2017-10-15T04:12:05.599Z,9.30
2017-10-15T04:14:33.850Z,6.50
2017-10-15T04:17:01.344Z,7.97
2017-10-15T04:19:29.609Z,8.07
2017-10-15T04:21:57.858Z,7.97
2017-10-15T04:24:25.358Z,7.00
2017-10-15T04:26:53.648Z,7.90
2017-10-15T04:29:21.142Z,10.13
2017-10-15T04:31:48.637Z,9.67
2017-10-15T04:34:16.919Z,7.97
2017-10-15T04:36:44.432Z,8.43
2017-10-15T04:39:11.937Z,13.50
2017-10-15T04:41:40.222Z,8.17
2017-10-15T04:44:08.481Z,7.90
2017-10-15T04:46:35.966Z,8.07
2017-10-15T04:49:03.475Z,11.87
2017-10-15T04:51:30.978Z,11.00
2017-10-15T04:53:58.491Z,6.83
2017-10-15T04:56:25.983Z,6.87
2017-10-15T04:58:54.270Z,8.60
2017-10-15T05:01:22.542Z,8.13
2017-10-15T05:03:50.815Z,6.27
2017-10-15T05:06:19.071Z,6.63
2017-10-15T05:08:46.594Z,12.57
2017-10-15T05:11:14.087Z,8.60
2017-10-15T05:13:41.576Z,6.80
2017-10-15T05:16:09.095Z,8.07
2017-10-15T05:18:36.595Z,9.13
2017-10-15T05:21:04.855Z,7.73
2017-10-15T05:23:33.142Z,6.40
2017-10-15T05:26:01.394Z,8.63
2017-10-15T05:28:28.886Z,7.13
2017-10-15T05:30:57.171Z,8.10
2017-10-15T05:33:24.695Z,6.40
2017-10-15T05:35:52.251Z,5.90
2017-10-15T05:38:20.504Z,8.57
2017-10-15T05:40:48.020Z,10.50
2017-10-15T05:43:16.286Z,8.87
2017-10-15T05:45:44.539Z,7.90
2017-10-15T05:48:12.022Z,8.23
2017-10-15T05:50:40.317Z,7.60
2017-10-15T05:53:08.598Z,8.33
2017-10-15T05:55:36.115Z,12.07
2017-10-15T05:58:03.631Z,9.07
2017-10-15T06:00:31.125Z,14.90
2017-10-15T06:02:58.622Z,8.53
2017-10-15T06:05:26.902Z,7.37
2017-10-15T06:07:55.153Z,6.87
2017-10-15T06:10:22.673Z,7.20
2017-10-15T06:12:50.207Z,6.17
2017-10-15T06:15:17.728Z,8.63
2017-10-15T06:17:45.235Z,7.10
2017-10-15T06:20:12.766Z,8.77
2017-10-15T06:22:41.039Z,6.23
2017-10-15T06:25:08.545Z,7.07
2017-10-15T06:27:36.038Z,6.67
2017-10-15T06:30:03.543Z,6.60
2017-10-15T06:32:31.050Z,7.63
2017-10-15T06:34:58.535Z,7.70
2017-10-15T06:37:26.019Z,9.50
2017-10-15T06:39:53.532Z,12.70
2017-10-15T06:42:21.095Z,12.07
2017-10-15T06:44:49.333Z,10.40
2017-10-15T06:47:16.827Z,12.97
2017-10-15T06:49:44.322Z,11.23
2017-10-15T06:52:11.841Z,16.13
2017-10-15T06:54:39.362Z,11.60
2017-10-15T06:57:06.866Z,13.43
2017-10-15T06:59:34.416Z,13.47
2017-10-15T07:02:01.937Z,8.10
2017-10-15T07:04:29.431Z,9.23
2017-10-15T07:06:56.915Z,8.33
2017-10-15T07:09:24.426Z,7.57
2017-10-15T07:11:51.934Z,11.13
2017-10-15T07:14:19.482Z,9.80
2017-10-15T07:16:46.974Z,10.10
2017-10-15T07:19:15.252Z,10.80
2017-10-15T07:21:43.526Z,12.23
2017-10-15T07:24:11.782Z,8.00
2017-10-15T07:26:39.297Z,12.43
2017-10-15T07:29:06.810Z,10.57
2017-10-15T07:31:34.308Z,7.33
2017-10-15T07:34:01.806Z,10.53
2017-10-15T07:36:29.325Z,8.10
2017-10-15T07:38:56.814Z,7.83
2017-10-15T07:41:24.382Z,7.90
2017-10-15T07:43:51.889Z,9.50
2017-10-15T07:46:19.375Z,14.53
2017-10-15T07:48:46.867Z,12.30
2017-10-15T07:51:14.390Z,12.40
2017-10-15T07:53:41.937Z,8.73
2017-10-15T07:56:09.455Z,11.67
2017-10-15T07:58:36.973Z,11.27
2017-10-15T08:01:04.478Z,10.53
2017-10-15T08:03:33.168Z,8.50
2017-10-15T08:06:01.258Z,11.00
2017-10-15T08:08:28.756Z,11.40
2017-10-15T08:10:56.261Z,11.53
2017-10-15T08:13:23.770Z,11.30
2017-10-15T08:15:51.263Z,11.83
2017-10-15T08:18:18.775Z,13.07
2017-10-15T08:20:46.304Z,9.60
2017-10-15T08:23:14.575Z,10.73
2017-10-15T08:25:42.071Z,10.43
2017-10-15T08:28:09.614Z,14.17
2017-10-15T08:30:37.339Z,9.23
2017-10-15T08:33:04.838Z,11.03
2017-10-15T08:35:32.344Z,15.93
2017-10-15T08:38:00.629Z,11.20
2017-10-15T08:40:28.139Z,12.50
2017-10-15T08:43:08.663Z,13.00
2017-10-15T08:45:36.182Z,16.50
2017-10-15T08:48:03.695Z,11.47
2017-10-15T08:50:31.987Z,11.73
2017-10-15T08:52:59.516Z,14.20
2017-10-15T08:55:27.066Z,10.37
2017-10-15T08:57:54.591Z,11.37
2017-10-15T09:00:22.094Z,10.60
2017-10-15T09:02:49.619Z,9.27
2017-10-15T09:05:17.107Z,9.37
2017-10-15T09:07:44.625Z,12.27
2017-10-15T09:10:12.121Z,19.53
2017-10-15T09:12:39.610Z,10.73
2017-10-15T09:15:07.926Z,9.40
2017-10-15T09:17:35.422Z,10.37
2017-10-15T09:20:02.947Z,12.43
2017-10-15T09:22:30.454Z,11.83
2017-10-15T09:24:57.943Z,10.80
2017-10-15T09:27:25.435Z,9.30
2017-10-15T09:29:52.954Z,9.90
2017-10-15T09:32:20.479Z,10.17
2017-10-15T09:34:48.434Z,13.27
2017-10-15T09:37:16.687Z,9.87
2017-10-15T09:39:44.200Z,11.20
2017-10-15T09:42:12.478Z,11.23
2017-10-15T09:44:40.755Z,11.30
2017-10-15T09:47:09.007Z,10.57
2017-10-15T09:49:36.534Z,11.37
2017-10-15T09:52:04.033Z,9.20
2017-10-15T09:54:31.523Z,8.50
2017-10-15T09:56:59.035Z,9.70
2017-10-15T09:59:26.531Z,9.07
2017-10-15T10:01:54.785Z,9.20
2017-10-15T10:04:22.306Z,11.90
2017-10-15T10:06:49.833Z,12.10
2017-10-15T10:09:17.348Z,9.43
2017-10-15T10:11:44.853Z,8.23
2017-10-15T10:14:13.105Z,9.00
2017-10-15T10:16:40.610Z,7.73
2017-10-15T10:19:08.103Z,6.90
2017-10-15T10:21:35.593Z,6.77
2017-10-15T10:24:03.099Z,6.00
2017-10-15T10:26:30.595Z,6.27
2017-10-15T10:28:58.088Z,7.30
2017-10-15T10:31:25.602Z,5.70
2017-10-15T10:33:53.111Z,6.47
2017-10-15T10:36:20.614Z,6.27
2017-10-15T10:38:48.140Z,5.27
2017-10-15T10:41:15.630Z,7.20
2017-10-15T10:43:43.123Z,5.50
2017-10-15T10:46:10.629Z,6.67
2017-10-15T10:48:38.121Z,6.70
2017-10-15T10:51:05.619Z,6.60
2017-10-15T10:53:33.142Z,5.37
2017-10-15T10:56:00.657Z,6.23
2017-10-15T10:58:28.176Z,4.53
2017-10-15T11:00:56.454Z,4.53
2017-10-15T11:03:23.959Z,5.47
2017-10-15T11:05:51.441Z,3.90
2017-10-15T11:08:18.950Z,4.90
2017-10-15T11:10:46.531Z,5.77
2017-10-15T11:13:14.190Z,4.27
2017-10-15T11:15:41.679Z,4.20
2017-10-15T11:18:09.947Z,5.10
2017-10-15T11:20:37.438Z,4.23
2017-10-15T11:23:04.994Z,3.50
2017-10-15T11:25:32.507Z,5.70
2017-10-15T11:28:00.009Z,3.93
2017-10-15T11:30:28.266Z,5.63
2017-10-15T11:32:56.539Z,4.03
2017-10-15T11:35:24.026Z,4.27
2017-10-15T11:37:51.512Z,3.23
2017-10-15T11:40:19.786Z,3.97
2017-10-15T11:42:48.063Z,3.00
2017-10-15T11:45:16.341Z,3.10
2017-10-15T11:47:44.594Z,3.07
2017-10-15T11:50:12.094Z,3.13
2017-10-15T11:52:39.606Z,2.80
2017-10-15T11:55:07.095Z,4.80
2017-10-15T11:57:34.600Z,5.10
2017-10-15T12:00:02.102Z,4.20
2017-10-15T12:02:30.360Z,3.47
2017-10-15T12:04:58.635Z,3.60
2017-10-15T12:07:26.117Z,2.90
2017-10-15T12:09:54.381Z,3.20
2017-10-15T12:12:21.894Z,3.70
2017-10-15T12:14:49.391Z,4.40
2017-10-15T12:17:16.887Z,3.60
2017-10-15T12:19:44.402Z,3.20
2017-10-15T12:22:12.671Z,3.23
2017-10-15T12:24:40.165Z,3.20
2017-10-15T12:27:08.448Z,4.77
2017-10-15T12:29:36.715Z,3.93
2017-10-15T12:32:04.974Z,3.83
2017-10-15T12:34:32.477Z,7.67
2017-10-15T12:36:59.980Z,3.20
2017-10-15T12:39:27.466Z,4.37
2017-10-15T12:41:55.743Z,3.40
2017-10-15T12:44:23.234Z,2.97
2017-10-15T12:46:50.748Z,3.27
2017-10-15T12:49:18.234Z,4.00
2017-10-15T12:51:46.520Z,4.07
2017-10-15T12:54:14.799Z,4.23
2017-10-15T12:56:42.299Z,3.13
2017-10-15T12:59:09.791Z,3.03
2017-10-15T13:01:37.327Z,4.67
2017-10-15T13:04:04.820Z,3.03
2017-10-15T13:06:33.137Z,4.63
2017-10-15T13:09:00.642Z,3.80
2017-10-15T13:11:28.141Z,4.47
2017-10-15T13:13:55.634Z,3.07
2017-10-15T13:16:23.146Z,3.03
2017-10-15T13:18:50.647Z,3.13
2017-10-15T13:21:18.154Z,3.00
2017-10-15T13:23:45.642Z,3.33
2017-10-15T13:26:13.131Z,2.80
2017-10-15T13:28:40.691Z,4.30
2017-10-15T13:31:08.206Z,2.80
2017-10-15T13:33:35.697Z,3.00
2017-10-15T13:36:03.183Z,3.40
2017-10-15T13:38:30.695Z,4.17
2017-10-15T13:40:58.185Z,3.53
2017-10-15T13:43:25.679Z,3.17
2017-10-15T13:45:53.186Z,3.00
2017-10-15T13:48:20.699Z,2.90
2017-10-15T13:50:48.950Z,2.73
2017-10-15T13:53:16.479Z,2.47
2017-10-15T13:55:43.961Z,2.57
2017-10-15T13:58:11.442Z,2.50
2017-10-15T14:00:38.958Z,3.87
2017-10-15T14:03:06.452Z,3.70
2017-10-15T14:05:34.109Z,3.10
2017-10-15T14:08:01.636Z,2.60
2017-10-15T14:10:29.142Z,5.80
2017-10-15T14:12:56.656Z,2.83
2017-10-15T14:15:24.162Z,3.53
2017-10-15T14:17:51.642Z,4.10
2017-10-15T14:20:19.911Z,3.70
2017-10-15T14:22:48.166Z,4.17
2017-10-15T14:25:15.654Z,3.00
2017-10-15T14:27:43.939Z,3.70
2017-10-15T14:30:11.442Z,3.57
2017-10-15T14:32:38.938Z,3.10
2017-10-15T14:35:06.455Z,2.80
2017-10-15T14:37:34.707Z,3.40
2017-10-15T14:40:02.203Z,2.40
2017-10-15T14:42:29.723Z,2.73
2017-10-15T14:44:57.231Z,3.30
2017-10-15T14:47:24.725Z,3.10
2017-10-15T14:49:52.238Z,3.47
2017-10-15T14:52:19.726Z,3.27
2017-10-15T14:54:48.616Z,3.23
2017-10-15T14:57:16.870Z,5.33
2017-10-15T14:59:44.359Z,2.60
2017-10-15T15:02:12.654Z,3.70
2017-10-15T15:04:40.154Z,3.10
2017-10-15T15:07:07.654Z,3.13
2017-10-15T15:09:35.178Z,3.50
2017-10-15T15:12:02.701Z,3.50
2017-10-15T15:14:30.217Z,3.50
2017-10-15T15:16:58.470Z,3.63
2017-10-15T15:19:26.738Z,2.90
2017-10-15T15:21:54.250Z,4.50
2017-10-15T15:24:22.513Z,3.23
2017-10-15T15:26:50.783Z,3.50
2017-10-15T15:29:19.079Z,4.63
2017-10-15T15:31:47.341Z,3.70
2017-10-15T15:34:15.642Z,2.90
2017-10-15T15:36:43.182Z,3.50
2017-10-15T15:39:11.455Z,3.60
2017-10-15T15:41:39.715Z,4.13
2017-10-15T15:44:07.222Z,2.97
2017-10-15T15:46:34.740Z,3.60
2017-10-15T15:49:02.230Z,3.80
2017-10-15T15:51:29.747Z,3.47
2017-10-15T15:53:58.126Z,3.87
2017-10-15T15:56:25.638Z,3.80
2017-10-15T15:58:53.134Z,3.47
2017-10-15T16:01:20.640Z,4.03
2017-10-15T16:03:48.909Z,3.47
2017-10-15T16:06:17.158Z,4.23
2017-10-15T16:08:44.668Z,4.20
2017-10-15T16:11:12.198Z,3.90
2017-10-15T16:13:39.697Z,4.87
2017-10-15T16:16:07.186Z,4.90
2017-10-15T16:18:34.699Z,3.93
2017-10-15T16:21:02.185Z,3.50
2017-10-15T16:23:29.699Z,3.53
2017-10-15T16:25:57.187Z,4.90
2017-10-15T16:28:24.679Z,4.50
2017-10-15T16:30:52.188Z,4.60
2017-10-15T16:33:20.447Z,6.57
2017-10-15T16:35:48.723Z,4.20
2017-10-15T16:38:16.978Z,3.80
2017-10-15T16:40:45.140Z,4.40
2017-10-15T16:43:13.027Z,8.00
2017-10-15T16:45:40.518Z,4.73
2017-10-15T16:48:09.029Z,5.13
2017-10-15T16:50:36.539Z,3.97
2017-10-15T16:53:04.616Z,4.23
2017-10-15T16:55:38.397Z,5.23
2017-10-15T16:58:06.071Z,5.60
2017-10-15T17:00:33.557Z,8.77
2017-10-15T17:03:01.911Z,7.93
2017-10-15T17:05:30.156Z,4.33
2017-10-15T17:07:58.317Z,5.43
2017-10-15T17:10:25.987Z,7.47
2017-10-15T17:12:53.826Z,4.70
2017-10-15T17:15:21.364Z,4.30
2017-10-15T17:17:49.196Z,5.60
2017-10-15T17:20:16.732Z,10.53
2017-10-15T17:22:44.615Z,6.57
2017-10-15T17:25:12.971Z,7.70
2017-10-15T17:27:41.223Z,4.60
2017-10-15T17:30:09.694Z,4.93
2017-10-15T17:32:37.571Z,7.37
2017-10-15T17:35:05.490Z,6.90
2017-10-15T17:37:33.131Z,5.87
2017-10-15T17:40:02.345Z,6.10
2017-10-15T17:42:30.019Z,4.90
2017-10-15T17:44:57.556Z,5.07
2017-10-15T17:47:25.265Z,13.13
2017-10-15T17:49:59.498Z,4.90
2017-10-15T17:52:28.130Z,6.30
2017-10-15T17:54:55.709Z,9.53
2017-10-15T17:57:23.273Z,5.80
2017-10-15T17:59:50.783Z,6.00
2017-10-15T18:02:34.289Z,5.73
2017-10-15T18:05:01.860Z,7.10
2017-10-15T18:07:29.847Z,5.73
2017-10-15T18:09:57.977Z,6.87
2017-10-15T18:12:25.841Z,8.50
2017-10-15T18:14:53.498Z,7.03
2017-10-15T18:17:21.141Z,7.67
2017-10-15T18:19:48.696Z,6.60
2017-10-15T18:22:16.265Z,7.23
2017-10-15T18:24:43.804Z,7.20
2017-10-15T18:27:11.309Z,9.17
2017-10-15T18:29:38.896Z,6.83
2017-10-15T18:32:06.501Z,9.37
2017-10-15T18:34:34.134Z,6.87
2017-10-15T18:37:01.911Z,8.73
2017-10-15T18:39:29.519Z,10.17
2017-10-15T18:41:57.186Z,8.00
2017-10-15T18:44:25.025Z,5.97
2017-10-15T18:46:52.830Z,5.80
2017-10-15T18:49:21.362Z,7.63
2017-10-15T18:51:49.260Z,8.03
2017-10-15T18:54:17.097Z,8.53
2017-10-15T18:56:45.088Z,6.93
2017-10-15T18:59:13.704Z,9.70
2017-10-15T19:01:41.591Z,6.53
2017-10-15T19:04:10.201Z,8.77
2017-10-15T19:06:37.984Z,6.30
2017-10-15T19:09:06.034Z,6.43
2017-10-15T19:11:34.106Z,6.87
2017-10-15T19:14:02.105Z,6.40
2017-10-15T19:16:30.153Z,8.33
2017-10-15T19:18:58.217Z,8.53
2017-10-15T19:21:26.210Z,9.70
2017-10-15T19:23:54.090Z,8.47
2017-10-15T19:26:21.950Z,10.80
2017-10-15T19:28:49.806Z,7.90
2017-10-15T19:31:17.451Z,8.57
2017-10-15T19:33:45.585Z,7.57
2017-10-15T19:36:14.094Z,8.50
2017-10-15T19:38:41.792Z,10.43
2017-10-15T19:41:09.471Z,6.70
2017-10-15T19:43:39.750Z,7.43
2017-10-15T19:46:07.711Z,7.10
2017-10-15T19:48:35.296Z,12.37
2017-10-15T19:51:02.847Z,9.33
2017-10-15T19:53:30.472Z,8.63
2017-10-15T19:55:58.001Z,8.27
2017-10-15T19:58:25.522Z,8.17
2017-10-15T20:00:53.786Z,9.27
2017-10-15T20:03:22.074Z,8.53
2017-10-15T20:05:50.331Z,8.40
2017-10-15T20:08:17.824Z,12.90
2017-10-15T20:10:45.358Z,8.40
2017-10-15T20:13:13.614Z,7.40
2017-10-15T20:15:41.119Z,14.23
2017-10-15T20:18:08.626Z,8.37
2017-10-15T20:20:36.121Z,9.90
2017-10-15T20:23:04.388Z,8.77
2017-10-15T20:25:32.661Z,8.03
2017-10-15T20:28:00.949Z,10.23
2017-10-15T20:30:29.206Z,9.93
2017-10-15T20:32:56.730Z,8.87
2017-10-15T20:35:24.259Z,7.63
2017-10-15T20:37:51.759Z,9.30
2017-10-15T20:40:19.377Z,8.80
2017-10-15T20:42:46.898Z,8.43
2017-10-15T20:45:14.390Z,8.77
2017-10-15T20:47:41.875Z,9.73
2017-10-15T20:50:09.375Z,9.57
2017-10-15T20:52:36.918Z,15.40
2017-10-15T20:55:04.426Z,12.70
2017-10-15T20:57:31.933Z,11.17
2017-10-15T20:59:59.425Z,12.73
2017-10-15T21:02:26.919Z,15.23
2017-10-15T21:04:54.428Z,9.00
2017-10-15T21:07:21.921Z,8.80
2017-10-15T21:09:49.406Z,9.17
2017-10-15T21:12:16.933Z,10.77
2017-10-15T21:14:45.183Z,9.33
2017-10-15T21:17:12.670Z,9.00
2017-10-15T21:19:40.950Z,11.20
2017-10-15T21:22:09.202Z,8.33
2017-10-15T21:24:36.693Z,9.27
2017-10-15T21:27:04.980Z,12.23
2017-10-15T21:29:32.467Z,9.00
2017-10-15T21:31:59.974Z,9.20
2017-10-15T21:34:27.474Z,11.27
2017-10-15T21:36:54.971Z,8.27
2017-10-15T21:39:22.486Z,9.50
2017-10-15T21:41:49.979Z,10.67
2017-10-15T21:44:17.467Z,8.00
2017-10-15T21:46:44.980Z,10.00
2017-10-15T21:49:12.489Z,8.97
2017-10-15T21:51:40.738Z,9.77
2017-10-15T21:54:08.255Z,9.30
2017-10-15T21:56:35.749Z,8.40
2017-10-15T21:59:03.235Z,7.67
2017-10-15T22:01:30.735Z,8.63
2017-10-15T22:03:58.227Z,7.70
2017-10-15T22:06:25.759Z,7.70
2017-10-15T22:08:53.289Z,6.93
2017-10-15T22:11:20.786Z,8.37
2017-10-15T22:13:48.270Z,7.47
2017-10-15T22:16:15.795Z,7.07
2017-10-15T22:18:48.871Z,8.40
2017-10-15T22:34:41.087Z,9.27
2017-10-15T22:37:08.574Z,6.43
2017-10-15T22:39:36.079Z,7.40
2017-10-15T22:42:03.573Z,11.17
2017-10-15T22:44:31.082Z,9.23
2017-10-15T22:46:58.585Z,9.43
2017-10-15T22:49:26.093Z,7.60
2017-10-15T22:51:53.586Z,8.20
2017-10-15T22:54:21.091Z,9.10
2017-10-15T22:56:48.609Z,8.53
2017-10-15T22:59:16.863Z,7.60
2017-10-15T23:01:44.370Z,6.97
2017-10-15T23:04:11.894Z,8.00
2017-10-15T23:06:39.526Z,10.23
2017-10-15T23:09:07.034Z,8.07
2017-10-15T23:11:34.557Z,9.60
2017-10-15T23:14:02.075Z,11.73
2017-10-15T23:16:29.574Z,7.63
2017-10-15T23:18:57.102Z,7.90
2017-10-15T23:21:24.600Z,8.33
2017-10-15T23:23:52.085Z,7.10
2017-10-15T23:26:20.371Z,6.77
2017-10-15T23:28:47.861Z,9.43
2017-10-15T23:31:15.352Z,6.03
2017-10-15T23:33:42.862Z,7.43
2017-10-15T23:36:10.391Z,9.77
2017-10-15T23:38:38.657Z,8.43
2017-10-15T23:41:06.963Z,7.60
2017-10-15T23:43:34.473Z,6.80
2017-10-15T23:46:01.979Z,8.90
2017-10-15T23:48:29.465Z,6.37
2017-10-15T23:50:56.971Z,8.80
2017-10-15T23:53:25.254Z,8.60
2017-10-15T23:55:53.519Z,10.03
2017-10-15T23:58:22.008Z,6.67
